Time;durP1;ratioP1;P1;durP2;ratioP2;P2;SDS_P1;SDS_P2;PMS_P1;PMS_P2;Temp;Humidity;BMP_temperature;BMP_pressure;BME280_temperature;BME280_humidity;BME280_pressure;Samples;Min_cycle;Max_cycle;Signal;HPM_P1;HPM_P2
2021/10/01 00:00:39;;;;;;;;;20.60;18.60;;;;;14.55;53.08;99977.59;6030232;28;97896;-61
2021/10/01 00:03:42;;;;;;;;;21.20;19.00;;;;;14.46;53.24;99973.47;6064950;28;96560;-61
2021/10/01 00:06:46;;;;;;;;;21.00;18.00;;;;;14.41;53.08;99970.59;6065114;28;97451;-61
2021/10/01 00:09:49;;;;;;;;;20.20;18.00;;;;;14.37;52.96;99970.19;6048180;28;97201;-60
2021/10/01 00:12:52;;;;;;;;;19.00;17.00;;;;;14.31;53.00;99969.19;6065264;28;96742;-60
2021/10/01 00:15:57;;;;;;;;;18.00;16.40;;;;;14.26;53.35;99981.72;6065827;28;96681;-61
2021/10/01 00:19:00;;;;;;;;;19.00;18.00;;;;;14.22;52.92;99977.81;6073039;28;97531;-61
2021/10/01 00:22:04;;;;;;;;;17.00;16.40;;;;;14.15;53.16;99977.84;6065051;28;96479;-60
2021/10/01 00:25:09;;;;;;;;;17.40;16.00;;;;;14.11;52.91;99975.78;6073692;28;97351;-60
2021/10/01 00:28:12;;;;;;;;;18.00;17.60;;;;;14.12;52.90;99967.41;6072239;28;97725;-60
2021/10/01 00:31:17;;;;;;;;;15.20;15.00;;;;;14.07;52.93;99972.69;6070862;28;97609;-61
2021/10/01 00:34:20;;;;;;;;;17.67;15.00;;;;;14.03;52.98;99974.13;6061046;28;97004;-62
2021/10/01 00:37:24;;;;;;;;;18.25;18.00;;;;;13.92;52.97;99969.44;6047835;28;97697;-61
2021/10/01 00:40:28;;;;;;;;;14.60;14.00;;;;;13.84;53.01;99967.78;6040199;28;96605;-60
2021/10/01 00:43:32;;;;;;;;;19.20;18.80;;;;;13.79;53.09;99967.59;6077440;28;97496;-60
2021/10/01 00:46:36;;;;;;;;;21.20;21.00;;;;;13.77;53.41;99964.28;6046828;28;99073;-60
2021/10/01 00:49:39;;;;;;;;;20.00;17.60;;;;;13.74;53.00;99956.56;6065061;28;96690;-62
2021/10/01 00:52:43;;;;;;;;;18.20;16.00;;;;;13.72;52.80;99953.25;6064385;28;97426;-62
2021/10/01 00:55:47;;;;;;;;;22.00;19.80;;;;;13.67;52.83;99954.94;6066528;28;97662;-62
2021/10/01 00:58:50;;;;;;;;;20.60;17.00;;;;;13.62;52.99;99939.34;6093115;28;97813;-61
2021/10/01 01:01:55;;;;;;;;;18.25;17.00;;;;;13.66;52.63;99954.13;6050572;28;97521;-62
2021/10/01 01:04:59;;;;;;;;;17.00;16.00;;;;;13.58;52.72;99957.09;6052170;28;96641;-62
2021/10/01 01:08:09;;;;;;;;;18.40;16.20;;;;;13.53;52.69;99959.59;6050441;28;96983;-60
2021/10/01 01:11:20;;;;;;;;;18.50;16.50;;;;;13.47;52.88;99960.47;6074822;28;96827;-59
2021/10/01 01:14:33;;;;;;;;;20.80;18.80;;;;;13.40;53.27;99956.94;6050791;28;96471;-60
2021/10/01 01:17:43;;;;;;;;;20.25;18.25;;;;;13.38;53.42;99949.03;6068924;28;96707;-62
2021/10/01 01:20:51;;;;;;;;;20.80;18.80;;;;;13.35;53.13;99943.19;6041539;28;98920;-61
2021/10/01 01:24:29;;;;;;;;;17.00;16.00;;;;;13.31;52.98;99945.50;6033199;28;96854;-62
2021/10/01 01:28:09;;;;;;;;;19.00;18.00;;;;;13.26;52.93;99952.59;6064527;28;97077;-61
2021/10/01 01:31:21;;;;;;;;;19.00;17.25;;;;;13.23;52.67;99953.03;6046159;28;97488;-61
2021/10/01 01:34:33;;;;;;;;;20.00;18.60;;;;;13.21;52.89;99964.06;6051081;28;97233;-62
2021/10/01 01:37:42;;;;;;;;;20.00;18.00;;;;;13.13;53.00;99956.19;6028062;28;97292;-63
2021/10/01 01:40:51;;;;;;;;;20.00;19.00;;;;;13.12;53.33;99951.81;6076330;28;99569;-63
2021/10/01 01:43:57;;;;;;;;;16.00;15.00;;;;;13.14;53.03;99946.19;6080113;28;97571;-63
2021/10/01 01:47:02;;;;;;;;;19.25;18.00;;;;;13.19;53.31;99949.09;6051147;28;97504;-63
2021/10/01 01:50:09;;;;;;;;;19.60;17.00;;;;;13.18;53.25;99955.56;6050335;28;96593;-62
2021/10/01 01:53:14;;;;;;;;;20.60;18.00;;;;;13.15;52.94;99959.50;6065891;28;96590;-60
2021/10/01 01:56:19;;;;;;;;;25.25;23.25;;;;;13.06;53.22;99955.31;6047888;28;96872;-61
2021/10/01 01:59:25;;;;;;;;;21.20;18.60;;;;;13.08;53.49;99955.97;6059358;28;97221;-60
2021/10/01 02:02:29;;;;;;;;;20.60;18.60;;;;;13.05;52.84;99966.38;6049322;28;97371;-60
2021/10/01 02:05:35;;;;;;;;;19.00;17.00;;;;;13.05;53.02;99958.28;6049235;28;97722;-60
2021/10/01 02:08:40;;;;;;;;;19.00;18.40;;;;;13.06;52.98;99960.75;6067754;28;96851;-62
2021/10/01 02:11:45;;;;;;;;;19.00;16.00;;;;;13.03;52.80;99964.72;6050497;28;97461;-60
2021/10/01 02:14:52;;;;;;;;;19.20;18.20;;;;;12.99;52.70;99966.19;6050501;28;97553;-62
2021/10/01 02:17:59;;;;;;;;;21.00;18.75;;;;;12.96;52.59;99965.75;6048589;28;97453;-59
2021/10/01 02:21:05;;;;;;;;;17.00;16.00;;;;;12.94;52.76;99965.16;6079690;28;97006;-60
2021/10/01 02:24:10;;;;;;;;;17.00;15.75;;;;;12.95;52.63;99967.63;6050566;28;98121;-61
2021/10/01 02:27:20;;;;;;;;;16.20;15.40;;;;;12.89;52.42;99957.66;6102861;28;97408;-62
2021/10/01 02:30:25;;;;;;;;;20.00;18.25;;;;;12.84;52.43;99967.47;6081084;28;96860;-60
2021/10/01 02:33:37;;;;;;;;;21.00;18.60;;;;;12.82;52.61;99966.81;6060546;28;96915;-60
2021/10/01 02:36:42;;;;;;;;;21.00;18.00;;;;;12.80;52.41;99971.63;6072848;28;96932;-62
2021/10/01 02:39:48;;;;;;;;;18.00;16.00;;;;;12.81;52.80;99967.84;6067097;28;97076;-60
2021/10/01 02:42:52;;;;;;;;;22.40;19.00;;;;;12.80;52.95;99974.34;6026713;28;97316;-60
2021/10/01 02:45:55;;;;;;;;;19.75;16.75;;;;;12.77;52.72;99978.28;6024586;28;96764;-60
2021/10/01 02:49:00;;;;;;;;;20.40;17.00;;;;;12.74;52.63;99976.00;6068145;28;97415;-60
2021/10/01 02:52:12;;;;;;;;;19.75;17.75;;;;;12.67;52.69;99968.91;6050728;28;96835;-62
2021/10/01 02:55:21;;;;;;;;;17.00;15.60;;;;;12.60;52.52;99979.75;6074228;28;98454;-62
2021/10/01 02:58:27;;;;;;;;;19.20;17.60;;;;;12.51;52.65;99973.69;6061691;28;97443;-60
2021/10/01 03:01:32;;;;;;;;;17.00;16.00;;;;;12.54;52.87;99967.06;6064017;28;97513;-62
2021/10/01 03:04:37;;;;;;;;;19.80;17.80;;;;;12.56;52.97;99970.38;6049189;28;97552;-62
2021/10/01 03:07:44;;;;;;;;;19.00;17.00;;;;;12.55;52.93;99974.97;6067857;28;97160;-60
2021/10/01 03:10:51;;;;;;;;;20.40;17.40;;;;;12.49;52.81;99973.09;6032115;28;97706;-61
2021/10/01 03:13:55;;;;;;;;;20.80;19.00;;;;;12.41;52.80;99969.75;6049579;28;99619;-61
2021/10/01 03:17:00;;;;;;;;;21.00;17.00;;;;;12.35;52.75;99954.38;6081717;28;97509;-62
2021/10/01 03:20:04;;;;;;;;;22.60;20.00;;;;;12.24;53.08;99946.84;6084917;28;98131;-62
2021/10/01 03:23:10;;;;;;;;;21.00;19.00;;;;;12.27;52.96;99952.66;6004182;28;97298;-62
2021/10/01 03:26:15;;;;;;;;;20.00;18.80;;;;;12.29;52.94;99957.88;6039270;28;97468;-62
2021/10/01 03:29:19;;;;;;;;;20.50;19.00;;;;;12.33;52.98;99957.25;6059795;28;97238;-60
2021/10/01 03:32:22;;;;;;;;;19.50;18.00;;;;;12.29;52.88;99952.47;6032158;28;97228;-60
2021/10/01 03:35:26;;;;;;;;;16.60;15.00;;;;;12.29;52.67;99952.47;6032389;28;97530;-60
2021/10/01 03:38:31;;;;;;;;;18.20;17.80;;;;;12.27;52.74;99952.66;6063712;28;97677;-60
2021/10/01 03:41:38;;;;;;;;;19.60;17.00;;;;;12.07;52.51;99916.69;6031806;28;97745;-61
2021/10/01 03:44:44;;;;;;;;;20.00;18.00;;;;;12.34;52.28;99944.56;6048890;28;97045;-62
2021/10/01 03:47:47;;;;;;;;;20.00;18.00;;;;;12.31;52.44;99942.31;6080886;28;96724;-61
2021/10/01 03:50:51;;;;;;;;;19.60;18.00;;;;;12.31;52.19;99947.72;6063410;28;97496;-62
2021/10/01 03:53:56;;;;;;;;;22.00;19.80;;;;;12.31;52.22;99937.72;6047626;28;96463;-59
2021/10/01 03:56:59;;;;;;;;;19.60;18.60;;;;;12.33;52.53;99932.09;6056755;28;97670;-61
2021/10/01 04:00:05;;;;;;;;;19.75;18.75;;;;;12.35;52.49;99930.03;6080011;28;97414;-63
2021/10/01 04:03:15;;;;;;;;;23.80;19.80;;;;;12.33;52.41;99926.69;6053624;28;97282;-60
2021/10/01 04:06:25;;;;;;;;;19.00;17.00;;;;;12.29;52.80;99918.16;6044683;28;97083;-63
2021/10/01 04:09:31;;;;;;;;;17.20;16.20;;;;;12.26;53.44;99920.44;6081355;28;97234;-62
2021/10/01 04:12:35;;;;;;;;;17.80;16.80;;;;;12.20;53.38;99907.75;6071629;28;97522;-62
2021/10/01 04:15:46;;;;;;;;;20.80;18.40;;;;;12.27;53.66;99912.13;6043533;28;96517;-62
2021/10/01 04:18:50;;;;;;;;;23.80;21.80;;;;;12.29;53.42;99910.03;6045913;28;98109;-62
2021/10/01 04:21:53;;;;;;;;;23.20;21.20;;;;;12.28;54.08;99905.66;6055368;28;97507;-61
2021/10/01 04:24:58;;;;;;;;;19.00;18.60;;;;;12.33;54.62;99916.69;6078370;28;97829;-60
2021/10/01 04:28:01;;;;;;;;;21.50;18.50;;;;;12.42;55.09;99915.44;6033260;28;97516;-61
2021/10/01 04:31:06;;;;;;;;;21.00;19.00;;;;;12.53;55.15;99920.22;6070507;28;98040;-60
2021/10/01 04:34:10;;;;;;;;;19.20;17.60;;;;;12.58;54.87;99923.16;6082975;28;98799;-61
2021/10/01 04:37:13;;;;;;;;;18.25;17.00;;;;;12.71;54.67;99924.16;6083019;28;97492;-61
2021/10/01 04:40:18;;;;;;;;;20.25;18.25;;;;;12.75;54.88;99934.38;6058246;28;96973;-61
2021/10/01 04:43:21;;;;;;;;;18.60;18.00;;;;;12.58;54.54;99911.50;6066121;28;98169;-61
2021/10/01 04:46:54;;;;;;;;;20.25;19.00;;;;;12.79;54.25;99930.22;6069784;28;96791;-60
2021/10/01 04:49:57;;;;;;;;;19.60;19.60;;;;;12.80;54.14;99929.16;6107025;28;97974;-60
2021/10/01 04:53:01;;;;;;;;;20.60;18.80;;;;;12.72;53.61;99926.66;6107540;28;98064;-61
2021/10/01 04:56:07;;;;;;;;;21.00;19.00;;;;;12.79;53.74;99929.38;6107425;28;97129;-60
2021/10/01 04:59:11;;;;;;;;;20.00;19.00;;;;;12.78;53.46;99928.53;6088566;28;97342;-63
2021/10/01 05:02:33;;;;;;;;;20.40;19.40;;;;;12.75;53.35;99928.13;6068844;28;97387;-62
2021/10/01 05:05:45;;;;;;;;;22.00;19.00;;;;;12.74;53.59;99932.72;6058871;28;97598;-61
2021/10/01 05:09:07;;;;;;;;;22.60;20.00;;;;;12.72;53.29;99932.06;6062810;28;96485;-62
2021/10/01 05:12:30;;;;;;;;;20.75;19.00;;;;;12.73;53.29;99932.91;6058651;28;96711;-62
2021/10/01 05:15:52;;;;;;;;;20.50;20.00;;;;;12.78;53.24;99933.13;6055865;28;97398;-62
2021/10/01 05:19:14;;;;;;;;;21.20;19.60;;;;;12.89;53.47;99937.88;6067701;28;97474;-63
2021/10/01 05:22:36;;;;;;;;;20.40;20.00;;;;;12.97;53.10;99943.06;6064445;28;96967;-63
2021/10/01 05:25:43;;;;;;;;;24.80;21.40;;;;;12.99;53.45;99947.25;6061834;28;97354;-62
2021/10/01 05:28:48;;;;;;;;;18.80;17.80;;;;;13.09;53.80;99943.25;6079569;28;97480;-63
2021/10/01 05:31:52;;;;;;;;;19.75;19.00;;;;;13.18;54.35;99948.25;6066445;28;97977;-65
2021/10/01 05:34:55;;;;;;;;;19.00;18.00;;;;;13.28;54.47;99953.22;6067633;28;96662;-64
2021/10/01 05:37:58;;;;;;;;;18.20;17.20;;;;;13.31;54.98;99950.91;6066507;28;97354;-62
2021/10/01 05:41:01;;;;;;;;;17.60;16.40;;;;;13.45;54.82;99954.41;6048126;28;96566;-64
2021/10/01 05:44:07;;;;;;;;;19.00;17.60;;;;;13.57;54.69;99950.00;6038463;28;97666;-62
2021/10/01 05:47:10;;;;;;;;;16.60;15.60;;;;;13.57;54.35;99949.16;6058597;28;96619;-64
2021/10/01 05:50:42;;;;;;;;;15.20;15.00;;;;;13.60;54.09;99959.56;6021496;28;97261;-63
2021/10/01 05:54:15;;;;;;;;;19.20;17.40;;;;;13.72;54.34;99952.44;6059090;28;98403;-61
2021/10/01 05:57:37;;;;;;;;;17.00;17.00;;;;;13.73;54.16;99959.53;6044557;28;96429;-62
2021/10/01 06:00:54;;;;;;;;;17.25;17.25;;;;;13.67;53.95;99963.91;6058987;28;98183;-64
2021/10/01 06:03:57;;;;;;;;;16.40;16.00;;;;;13.65;54.62;99965.16;6059603;28;96491;-63
2021/10/01 06:07:00;;;;;;;;;17.00;16.00;;;;;13.66;54.71;99954.13;6044874;28;97093;-64
2021/10/01 06:10:05;;;;;;;;;16.20;15.20;;;;;13.75;55.14;99968.25;6044144;28;96657;-64
2021/10/01 06:13:11;;;;;;;;;20.00;18.20;;;;;13.84;55.27;99967.78;6067486;28;96687;-60
2021/10/01 06:16:16;;;;;;;;;23.00;19.50;;;;;13.94;54.93;99970.03;6067876;28;97900;-61
2021/10/01 06:19:19;;;;;;;;;19.00;18.50;;;;;14.05;54.48;99969.34;6068178;28;97505;-64
2021/10/01 06:22:22;;;;;;;;;19.20;18.00;;;;;14.13;54.47;99966.34;6049916;28;98489;-64
2021/10/01 06:25:26;;;;;;;;;18.60;18.00;;;;;14.20;54.47;99969.03;6030449;28;97121;-63
2021/10/01 06:28:31;;;;;;;;;21.60;17.00;;;;;14.28;54.25;99968.75;6043290;28;97967;-62
2021/10/01 06:31:35;;;;;;;;;20.00;19.60;;;;;14.42;54.44;99953.25;6044870;28;97058;-61
2021/10/01 06:34:39;;;;;;;;;20.50;19.00;;;;;14.63;54.52;99967.28;6044322;28;96460;-61
2021/10/01 06:37:42;;;;;;;;;20.60;19.60;;;;;14.78;53.49;99963.38;6058556;28;98118;-61
2021/10/01 06:40:45;;;;;;;;;19.00;18.00;;;;;14.86;53.72;99963.09;6045063;28;96764;-61
2021/10/01 06:43:56;;;;;;;;;19.00;18.60;;;;;14.92;52.47;99959.50;6030860;28;98519;-60
2021/10/01 06:47:04;;;;;;;;;18.80;17.80;;;;;14.96;52.76;99966.97;6068559;28;97578;-62
2021/10/01 06:50:24;;;;;;;;;17.00;16.00;;;;;15.14;53.53;99963.47;6044010;28;97458;-64
2021/10/01 08:21:28;;;;;;;;;20.00;19.60;;;;;25.31;34.40;99941.91;6020094;29;97129;-63
2021/10/01 08:24:48;;;;;;;;;16.75;16.75;;;;;26.09;32.11;99938.72;6003536;29;96750;-63
2021/10/01 08:27:54;;;;;;;;;18.00;16.80;;;;;26.62;32.33;99938.47;6035893;28;96658;-63
2021/10/01 08:30:58;;;;;;;;;19.60;17.60;;;;;27.37;31.45;99930.75;6013809;28;97251;-64
2021/10/01 08:34:01;;;;;;;;;18.00;17.00;;;;;27.99;30.02;99928.38;6043077;28;96698;-62
2021/10/01 08:37:06;;;;;;;;;17.00;15.00;;;;;28.58;29.38;99923.69;6042932;28;97142;-62
2021/10/01 08:40:11;;;;;;;;;16.00;16.00;;;;;29.11;28.15;99927.28;6065005;28;97377;-61
2021/10/01 08:43:24;;;;;;;;;18.00;18.00;;;;;29.42;27.98;99926.50;6004494;29;96661;-61
2021/10/01 08:46:29;;;;;;;;;18.40;18.40;;;;;29.51;28.28;99919.81;6019190;29;97085;-63
2021/10/01 08:49:34;;;;;;;;;19.67;18.00;;;;;30.00;27.23;99915.88;6019315;29;97429;-64
2021/10/01 08:52:41;;;;;;;;;20.40;19.40;;;;;30.18;26.71;99913.91;6019878;29;96940;-63
2021/10/01 08:55:46;;;;;;;;;25.00;21.00;;;;;30.27;27.04;99919.47;6034873;28;98046;-62
2021/10/01 08:58:51;;;;;;;;;19.00;18.00;;;;;30.64;26.46;99910.47;6044882;28;97170;-62
2021/10/01 09:01:55;;;;;;;;;17.00;17.00;;;;;31.08;26.20;99917.59;6060773;28;97828;-61
2021/10/01 09:05:02;;;;;;;;;18.60;16.60;;;;;31.55;25.41;99915.59;6069957;28;98064;-61
2021/10/01 09:08:12;;;;;;;;;17.00;17.00;;;;;31.80;25.17;99913.84;6069543;28;97279;-59
2021/10/01 09:11:15;;;;;;;;;16.00;14.00;;;;;31.82;24.98;99915.13;6055934;28;97506;-61
2021/10/01 09:14:21;;;;;;;;;16.60;16.00;;;;;31.86;24.56;99904.13;6029168;28;98078;-62
2021/10/01 09:17:27;;;;;;;;;17.00;15.00;;;;;32.13;24.84;99898.03;6045339;28;97114;-58
2021/10/01 09:20:31;;;;;;;;;17.00;17.00;;;;;32.35;24.50;99899.66;6044640;28;96550;-60
2021/10/01 09:23:59;;;;;;;;;16.00;15.33;;;;;32.66;24.55;99897.25;6060559;28;97107;-60
2021/10/01 09:27:03;;;;;;;;;15.80;15.80;;;;;32.72;24.14;99886.69;6045645;28;97481;-62
2021/10/01 09:30:09;;;;;;;;;17.00;16.00;;;;;32.01;24.12;99883.97;6028127;28;97822;-60
2021/10/01 09:33:16;;;;;;;;;20.50;19.50;;;;;31.19;24.98;99873.47;6045423;28;96549;-61
2021/10/01 09:36:20;;;;;;;;;16.00;15.00;;;;;30.91;25.91;99879.44;6045559;28;98036;-62
2021/10/01 09:39:28;;;;;;;;;17.25;15.50;;;;;30.96;26.09;99870.09;6060286;28;96617;-60
2021/10/01 09:42:39;;;;;;;;;14.20;14.00;;;;;31.19;26.43;99867.88;6067657;28;96414;-59
2021/10/01 09:46:02;;;;;;;;;17.00;16.00;;;;;31.68;24.87;99864.38;6069074;28;96671;-59
2021/10/01 09:49:06;;;;;;;;;17.00;16.00;;;;;32.03;24.71;99864.94;6069571;28;97521;-59
2021/10/01 09:52:11;;;;;;;;;15.00;14.00;;;;;32.13;24.62;99872.09;6068693;28;97133;-61
2021/10/01 09:55:17;;;;;;;;;18.00;15.00;;;;;32.39;24.41;99869.09;6069234;28;97656;-61
2021/10/01 09:58:24;;;;;;;;;15.00;14.00;;;;;32.47;23.64;99871.78;6069252;28;96848;-59
2021/10/01 10:01:28;;;;;;;;;14.40;13.60;;;;;32.47;24.34;99863.41;6069063;28;97543;-61
2021/10/01 10:04:33;;;;;;;;;14.25;14.25;;;;;32.12;24.42;99868.50;6068273;28;96428;-59
2021/10/01 10:07:40;;;;;;;;;15.00;13.00;;;;;32.07;24.80;99857.50;6068279;28;96517;-62
2021/10/01 10:10:47;;;;;;;;;12.40;12.40;;;;;32.10;25.17;99851.31;6065941;28;96691;-61
2021/10/01 10:13:53;;;;;;;;;13.67;12.67;;;;;32.59;24.53;99846.72;6068518;28;97437;-59
2021/10/01 10:17:00;;;;;;;;;13.40;12.60;;;;;32.55;24.68;99840.16;6067292;28;97463;-60
2021/10/01 10:20:04;;;;;;;;;12.00;12.00;;;;;32.53;24.52;99841.69;6068128;28;97642;-59
2021/10/01 10:23:08;;;;;;;;;10.00;10.00;;;;;32.90;24.51;99839.81;6066586;28;96906;-60
2021/10/01 10:26:12;;;;;;;;;13.00;13.00;;;;;32.34;24.55;99838.59;6067471;28;97511;-59
2021/10/01 10:29:15;;;;;;;;;13.25;12.00;;;;;32.37;24.64;99838.72;6067492;28;96749;-61
2021/10/01 10:32:24;;;;;;;;;13.40;11.40;;;;;31.79;25.76;99836.91;6067241;28;97493;-60
2021/10/01 10:35:40;;;;;;;;;13.60;12.00;;;;;31.42;25.05;99842.19;6068021;28;97441;-59
2021/10/01 10:38:43;;;;;;;;;12.60;10.60;;;;;31.55;25.32;99831.16;6048462;28;98540;-58
2021/10/01 10:41:48;;;;;;;;;8.40;7.60;;;;;31.42;23.75;99832.22;6049270;28;97199;-61
2021/10/01 10:44:55;;;;;;;;;8.00;8.00;;;;;30.57;24.77;99823.88;6067027;28;96962;-60
2021/10/01 10:48:02;;;;;;;;;8.00;7.00;;;;;29.98;26.74;99818.03;6068699;28;96628;-60
2021/10/01 10:51:05;;;;;;;;;5.80;5.00;;;;;29.85;26.11;99826.50;6068749;28;96600;-59
2021/10/01 10:54:09;;;;;;;;;5.00;4.80;;;;;29.38;26.22;99817.94;6067415;28;97393;-61
2021/10/01 10:57:29;;;;;;;;;7.00;7.00;;;;;28.61;27.83;99820.38;6064471;28;97417;-62
2021/10/01 11:00:40;;;;;;;;;6.00;6.00;;;;;27.34;29.08;99815.06;6065056;28;96464;-59
2021/10/01 11:03:45;;;;;;;;;5.80;5.20;;;;;27.00;30.51;99803.59;6051590;28;97035;-61
2021/10/01 11:06:55;;;;;;;;;8.00;6.50;;;;;26.74;30.62;99789.41;6065708;28;97211;-60
2021/10/01 11:10:34;;;;;;;;;6.00;6.00;;;;;26.87;31.42;99804.44;6064719;28;97526;-59
2021/10/01 11:13:38;;;;;;;;;7.00;6.00;;;;;26.77;31.13;99801.81;6065889;28;97502;-60
2021/10/01 11:16:42;;;;;;;;;8.00;6.00;;;;;27.27;30.71;99800.81;6065923;28;97522;-61
2021/10/01 11:19:50;;;;;;;;;6.00;5.00;;;;;28.06;29.81;99792.91;6065013;28;96593;-61
2021/10/01 11:22:54;;;;;;;;;5.00;5.00;;;;;27.91;30.24;99791.31;6063926;28;98470;-59
2021/10/01 11:25:57;;;;;;;;;6.40;6.00;;;;;27.31;29.73;99789.94;6065452;28;98101;-59
2021/10/01 11:29:04;;;;;;;;;6.00;6.00;;;;;26.88;30.05;99783.94;6079970;28;96640;-61
2021/10/01 11:32:09;;;;;;;;;5.25;5.25;;;;;26.36;31.82;99757.50;6064366;28;96597;-60
2021/10/01 11:35:14;;;;;;;;;7.00;6.00;;;;;26.45;31.73;99781.38;6065307;28;97502;-58
2021/10/01 11:38:27;;;;;;;;;7.50;7.50;;;;;26.41;31.29;99771.25;6066335;28;96567;-61
2021/10/01 11:41:30;;;;;;;;;7.00;6.00;;;;;26.13;32.88;99767.56;6040564;28;97200;-60
2021/10/01 11:44:34;;;;;;;;;8.00;6.00;;;;;26.38;33.14;99769.09;6066388;28;97565;-60
2021/10/01 11:47:38;;;;;;;;;7.60;6.60;;;;;26.22;32.91;99738.13;6080258;28;97140;-57
2021/10/01 11:50:45;;;;;;;;;6.00;6.00;;;;;26.26;33.54;99761.28;6048864;28;96762;-60
2021/10/01 11:53:48;;;;;;;;;8.00;6.33;;;;;27.06;32.18;99756.16;6064124;28;97722;-60
2021/10/01 11:56:56;;;;;;;;;7.40;6.80;;;;;27.68;31.73;99755.59;6063729;28;97567;-60
2021/10/01 12:00:02;;;;;;;;;8.00;6.80;;;;;28.07;30.90;99758.50;6063498;28;96851;-60
2021/10/01 12:03:14;;;;;;;;;6.00;6.00;;;;;27.89;30.92;99751.22;6063768;28;97495;-59
2021/10/01 12:06:24;;;;;;;;;6.20;6.00;;;;;27.63;31.66;99736.31;6033718;28;100678;-60
2021/10/01 12:09:27;;;;;;;;;5.20;5.20;;;;;27.19;31.61;99699.09;6064659;28;97490;-61
2021/10/01 12:12:31;;;;;;;;;6.20;6.20;;;;;27.22;31.71;99741.97;6064161;28;97252;-60
2021/10/01 12:15:37;;;;;;;;;8.00;8.00;;;;;26.89;32.77;99735.75;6064310;28;97883;-61
2021/10/01 12:18:44;;;;;;;;;8.00;6.00;;;;;26.59;32.70;99728.84;6064019;28;97436;-61
2021/10/01 12:21:49;;;;;;;;;7.40;7.40;;;;;26.15;33.54;99735.72;6061883;28;96891;-60
2021/10/01 12:24:55;;;;;;;;;5.33;5.33;;;;;25.65;33.82;99731.06;6063477;28;97517;-61
2021/10/01 12:27:59;;;;;;;;;6.00;6.00;;;;;25.80;34.42;99720.56;6061833;28;96552;-59
2021/10/01 12:31:04;;;;;;;;;6.00;5.50;;;;;26.38;34.35;99719.31;6077807;28;96729;-61
2021/10/01 12:34:10;;;;;;;;;6.00;4.00;;;;;26.72;33.30;99709.50;6064441;28;97646;-61
2021/10/01 12:37:21;;;;;;;;;5.75;5.75;;;;;27.05;32.19;99706.63;6063318;28;96771;-60
2021/10/01 12:40:24;;;;;;;;;6.00;6.00;;;;;27.30;32.45;99699.69;6062126;28;97231;-60
2021/10/01 12:43:42;;;;;;;;;5.00;5.00;;;;;27.06;32.67;99692.47;6063418;28;97565;-61
2021/10/01 12:46:49;;;;;;;;;5.00;5.00;;;;;27.21;32.71;99693.25;6063343;28;97175;-61
2021/10/01 12:50:01;;;;;;;;;5.00;5.00;;;;;26.72;32.40;99692.09;6063922;28;96678;-62
2021/10/01 12:53:08;;;;;;;;;6.00;5.00;;;;;26.70;32.81;99681.31;6077830;28;97572;-60
2021/10/01 12:56:15;;;;;;;;;6.00;5.00;;;;;26.78;33.13;99681.75;6067418;28;97039;-60
2021/10/01 12:59:37;;;;;;;;;5.67;5.00;;;;;26.94;32.50;99669.22;6067470;28;97479;-61
2021/10/01 13:02:42;;;;;;;;;5.00;4.00;;;;;26.78;32.21;99662.38;6053818;28;97521;-62
2021/10/01 13:05:47;;;;;;;;;5.00;4.80;;;;;26.87;32.56;99661.38;6067835;28;97039;-62
2021/10/01 13:08:51;;;;;;;;;5.00;5.00;;;;;26.78;32.99;99665.13;6056029;28;96737;-62
2021/10/01 13:11:55;;;;;;;;;6.00;6.00;;;;;26.62;32.95;99659.94;6067084;28;96617;-60
2021/10/01 13:15:18;;;;;;;;;5.40;5.00;;;;;26.37;33.08;99654.09;6067636;28;97530;-60
2021/10/01 13:18:26;;;;;;;;;3.40;3.40;;;;;25.96;33.38;99657.59;6067529;28;96620;-60
2021/10/01 13:21:30;;;;;;;;;5.20;5.00;;;;;25.30;34.59;99647.66;6066874;28;97464;-59
2021/10/01 13:24:34;;;;;;;;;4.00;4.00;;;;;24.43;36.21;99643.63;6052640;28;97467;-63
2021/10/01 13:27:38;;;;;;;;;6.00;6.00;;;;;24.02;37.39;99638.53;6063638;28;96757;-62
2021/10/01 13:30:41;;;;;;;;;4.40;4.40;;;;;24.04;37.30;99638.25;6064730;28;97655;-61
2021/10/01 13:33:45;;;;;;;;;5.50;4.50;;;;;23.76;37.98;99631.63;6065952;28;97247;-62
2021/10/01 13:36:48;;;;;;;;;5.00;5.00;;;;;23.65;38.36;99636.41;6065391;28;96713;-63
2021/10/01 13:39:59;;;;;;;;;5.00;5.00;;;;;23.72;38.22;99625.06;6066325;28;96647;-59
2021/10/01 13:43:03;;;;;;;;;5.00;5.00;;;;;23.60;38.51;99630.13;6062399;28;97250;-59
2021/10/01 13:46:08;;;;;;;;;5.00;5.00;;;;;23.51;38.58;99624.41;6043642;28;97279;-61
2021/10/01 13:49:11;;;;;;;;;4.00;4.00;;;;;23.86;38.68;99627.94;6061612;28;97881;-61
2021/10/01 13:52:14;;;;;;;;;6.00;5.00;;;;;24.28;38.17;99625.31;6065979;28;97125;-60
2021/10/01 13:55:20;;;;;;;;;5.00;5.00;;;;;24.40;37.45;99622.13;6051564;28;98717;-61
2021/10/01 13:58:27;;;;;;;;;5.00;5.00;;;;;24.41;37.28;99621.84;6054201;28;97064;-63
2021/10/01 14:01:32;;;;;;;;;4.50;4.00;;;;;24.43;37.56;99624.31;6067677;28;97499;-59
2021/10/01 14:04:35;;;;;;;;;6.00;5.40;;;;;24.35;37.45;99619.44;6067773;28;96615;-59
2021/10/01 14:07:39;;;;;;;;;5.00;5.00;;;;;24.33;37.24;99605.16;6050504;28;98123;-61
2021/10/01 14:10:45;;;;;;;;;5.67;5.67;;;;;24.49;37.08;99614.84;6063842;28;97322;-59
2021/10/01 14:13:48;;;;;;;;;5.00;4.60;;;;;24.42;36.90;99612.47;6067331;28;96597;-61
2021/10/01 14:16:51;;;;;;;;;6.00;5.00;;;;;24.32;36.99;99609.00;6060184;28;96850;-60
2021/10/01 14:19:54;;;;;;;;;5.00;4.00;;;;;24.02;37.41;99605.47;6068065;28;96700;-62
2021/10/01 14:22:58;;;;;;;;;5.00;5.00;;;;;23.79;38.39;99610.97;6068297;28;96628;-59
2021/10/01 14:26:03;;;;;;;;;4.80;3.20;;;;;23.76;38.71;99590.31;6082514;28;97107;-61
2021/10/01 14:29:06;;;;;;;;;3.25;3.25;;;;;23.82;38.66;99596.59;6065895;28;97437;-59
2021/10/01 14:32:10;;;;;;;;;5.80;5.00;;;;;23.74;38.22;99598.06;6067943;28;98265;-59
2021/10/01 14:35:14;;;;;;;;;6.00;5.00;;;;;23.36;38.79;99577.72;6067594;28;99684;-60
2021/10/01 14:38:17;;;;;;;;;4.60;4.60;;;;;23.37;39.22;99586.81;6067428;28;97080;-59
2021/10/01 14:41:22;;;;;;;;;3.20;3.00;;;;;23.38;39.29;99581.03;6064272;28;97470;-59
2021/10/01 14:44:25;;;;;;;;;4.00;4.00;;;;;23.24;39.53;99580.03;6054167;28;96618;-61
2021/10/01 14:47:30;;;;;;;;;4.00;4.00;;;;;23.27;40.00;99576.72;6067336;28;98188;-59
2021/10/01 14:50:34;;;;;;;;;4.20;4.00;;;;;23.25;39.65;99568.75;6067988;28;97484;-60
2021/10/01 14:53:38;;;;;;;;;6.20;5.60;;;;;23.18;40.11;99576.50;6066665;28;97043;-61
2021/10/01 14:56:44;;;;;;;;;5.00;5.00;;;;;22.91;40.47;99573.44;6066738;28;96656;-59
2021/10/01 14:59:47;;;;;;;;;4.00;4.00;;;;;22.48;41.41;99574.22;6054886;28;97613;-60
2021/10/01 15:02:52;;;;;;;;;4.20;4.00;;;;;22.40;41.59;99562.72;6067044;28;96632;-59
2021/10/01 15:05:55;;;;;;;;;4.00;4.00;;;;;22.34;41.53;99568.50;6066420;28;96877;-59
2021/10/01 15:08:59;;;;;;;;;6.75;6.00;;;;;22.04;42.59;99573.03;6066371;28;97640;-61
2021/10/01 15:12:04;;;;;;;;;7.40;7.00;;;;;21.47;43.26;99567.91;6066058;28;98051;-61
2021/10/01 15:15:09;;;;;;;;;9.00;9.00;;;;;21.38;43.91;99561.34;6061978;28;96666;-60
2021/10/01 15:18:13;;;;;;;;;7.00;7.00;;;;;21.31;44.32;99559.97;6066510;28;97452;-63
2021/10/01 15:21:16;;;;;;;;;7.60;6.00;;;;;21.22;44.16;99562.44;6049025;28;97935;-59
2021/10/01 15:24:19;;;;;;;;;7.75;7.50;;;;;21.18;44.64;99558.63;6066214;28;97094;-59
2021/10/01 15:27:24;;;;;;;;;9.20;9.00;;;;;21.23;44.64;99563.28;6065971;28;96626;-59
2021/10/01 15:30:27;;;;;;;;;10.40;10.00;;;;;21.26;44.30;99563.53;6060429;28;97634;-60
2021/10/01 15:33:31;;;;;;;;;8.00;8.00;;;;;21.11;44.75;99555.31;6065200;28;96782;-62
2021/10/01 15:36:35;;;;;;;;;7.40;7.00;;;;;21.11;44.92;99555.31;6060711;28;97238;-60
2021/10/01 15:39:38;;;;;;;;;7.00;6.50;;;;;21.09;45.27;99554.75;6062863;28;96849;-59
2021/10/01 15:42:44;;;;;;;;;7.00;6.00;;;;;20.93;45.30;99550.34;6065330;28;96696;-60
2021/10/01 15:45:50;;;;;;;;;6.40;6.00;;;;;20.83;45.82;99542.94;6072968;28;97454;-59
2021/10/01 15:48:56;;;;;;;;;6.40;5.40;;;;;20.70;46.03;99549.78;6067051;28;97602;-59
2021/10/01 15:52:00;;;;;;;;;7.40;6.40;;;;;20.66;46.26;99551.44;6075842;28;97382;-61